Time;durP1;ratioP1;P1;durP2;ratioP2;P2;SDS_P1;SDS_P2;PMS_P1;PMS_P2;Temp;Humidity;BMP_temperature;BMP_pressure;BME280_temperature;BME280_humidity;BME280_pressure;Samples;Min_cycle;Max_cycle;Signal;HPM_P1;HPM_P2
2021/12/27 00:00:01;;;;;;;47.50;25.52;;;;;;;4.29;100.00;95377.06;5031170;28;20123;-48
2021/12/27 00:02:30;;;;;;;45.75;25.13;;;;;;;4.43;100.00;95374.06;5022098;28;20076;-47
2021/12/27 00:05:00;;;;;;;42.88;24.35;;;;;;;4.53;100.00;95372.31;5025941;28;20084;-47
2021/12/27 00:07:28;;;;;;;44.75;24.88;;;;;;;4.57;100.00;95374.66;5007069;28;20100;-55
2021/12/27 00:09:56;;;;;;;43.40;25.23;;;;;;;4.69;100.00;95374.41;5008855;28;20069;-49
2021/12/27 00:12:25;;;;;;;43.40;25.48;;;;;;;4.73;100.00;95374.97;5022508;28;20061;-49
2021/12/27 00:14:53;;;;;;;46.45;26.17;;;;;;;4.11;100.00;95370.84;5025499;28;20462;-46
2021/12/27 00:17:22;;;;;;;45.17;24.80;;;;;;;4.14;100.00;95367.97;5021288;28;20463;-51
2021/12/27 00:19:50;;;;;;;43.17;24.58;;;;;;;4.36;100.00;95372.13;5025354;28;20069;-50
2021/12/27 00:22:20;;;;;;;43.83;25.73;;;;;;;4.00;100.00;95372.56;5023804;28;20068;-49
2021/12/27 00:24:48;;;;;;;48.35;27.95;;;;;;;4.36;100.00;95370.34;5008269;28;20093;-50
2021/12/27 00:27:17;;;;;;;44.53;25.42;;;;;;;4.48;100.00;95381.53;5004379;28;20061;-46
2021/12/27 00:29:46;;;;;;;44.40;25.52;;;;;;;4.66;100.00;95381.69;5000821;28;20532;-50
2021/12/27 00:32:14;;;;;;;44.72;23.55;;;;;;;5.03;100.00;95383.66;4996528;28;20068;-54
2021/12/27 00:34:43;;;;;;;45.42;25.30;;;;;;;4.68;100.00;95378.00;5009194;28;20065;-54
2021/12/27 00:37:11;;;;;;;43.42;25.00;;;;;;;4.59;100.00;95383.19;5027136;28;20069;-46
2021/12/27 00:39:41;;;;;;;44.13;25.30;;;;;;;4.65;100.00;95382.66;4999452;28;20540;-47
2021/12/27 00:42:10;;;;;;;42.60;23.75;;;;;;;4.81;100.00;95382.13;5020698;28;20068;-58
2021/12/27 00:44:38;;;;;;;41.85;23.67;;;;;;;4.46;100.00;95381.63;5024568;28;20072;-53
2021/12/27 00:47:07;;;;;;;51.03;28.05;;;;;;;3.92;100.00;95374.19;5023426;28;20060;-47
2021/12/27 00:49:35;;;;;;;45.22;24.75;;;;;;;4.65;100.00;95367.81;5021212;28;20657;-49
2021/12/27 00:52:04;;;;;;;42.90;24.80;;;;;;;4.48;100.00;95366.69;5008961;28;20077;-52
2021/12/27 00:54:33;;;;;;;44.10;25.23;;;;;;;3.97;100.00;95366.81;5023470;28;20076;-46
2021/12/27 00:57:03;;;;;;;45.47;24.90;;;;;;;4.42;100.00;95372.44;5004674;28;20073;-44
2021/12/27 00:59:31;;;;;;;46.25;25.95;;;;;;;4.32;100.00;95373.38;5000930;28;20445;-45
2021/12/27 01:02:00;;;;;;;46.30;26.85;;;;;;;3.77;100.00;95384.13;5003920;28;20092;-48
2021/12/27 01:04:28;;;;;;;50.13;28.08;;;;;;;3.91;100.00;95369.91;5001018;28;20077;-51
2021/12/27 01:06:57;;;;;;;43.28;24.08;;;;;;;4.48;100.00;95373.69;5005177;28;20476;-54
2021/12/27 01:09:35;;;;;;;47.70;26.00;;;;;;;4.60;100.00;95370.00;5011297;28;20196;-50
2021/12/27 01:12:25;;;;;;;47.10;25.20;;;;;;;4.54;100.00;95378.34;5018848;28;20072;-48
2021/12/27 01:15:10;;;;;;;44.05;24.15;;;;;;;4.18;100.00;95382.38;5021731;28;20069;-49
2021/12/27 01:17:40;;;;;;;44.67;24.38;;;;;;;4.39;100.00;95370.09;5024903;28;20072;-48
2021/12/27 01:20:12;;;;;;;43.55;24.77;;;;;;;3.86;100.00;95372.09;5018828;28;20148;-50
2021/12/27 01:22:41;;;;;;;49.15;27.63;;;;;;;4.20;100.00;95370.06;5006358;28;20116;-46
2021/12/27 01:25:12;;;;;;;48.42;26.13;;;;;;;4.16;100.00;95368.63;5022730;28;20088;-57
2021/12/27 01:27:43;;;;;;;45.40;24.60;;;;;;;4.08;100.00;95360.66;4995922;28;20089;-48
2021/12/27 01:30:15;;;;;;;46.90;26.95;;;;;;;4.28;100.00;95362.38;5033877;28;20816;-53
2021/12/27 01:32:47;;;;;;;41.45;23.55;;;;;;;4.04;100.00;95366.13;5028492;28;20067;-50
2021/12/27 01:35:16;;;;;;;43.47;23.40;;;;;;;4.55;100.00;95366.16;5028231;28;20069;-53
2021/12/27 01:37:46;;;;;;;46.35;24.83;;;;;;;4.24;100.00;95361.00;5027338;28;20084;-49
2021/12/27 01:40:16;;;;;;;42.05;24.63;;;;;;;4.27;100.00;95350.28;5028899;28;20153;-51
2021/12/27 01:43:03;;;;;;;44.53;25.88;;;;;;;3.91;100.00;95352.50;5025601;28;20148;-52
2021/12/27 01:45:32;;;;;;;50.53;26.33;;;;;;;4.02;100.00;95355.00;5007674;28;20065;-50
2021/12/27 01:48:00;;;;;;;45.65;24.42;;;;;;;4.36;100.00;95351.25;5005417;28;20169;-47
2021/12/27 01:50:28;;;;;;;46.22;24.67;;;;;;;4.85;100.00;95359.97;5000903;28;20521;-53
2021/12/27 01:52:57;;;;;;;45.13;24.23;;;;;;;4.32;100.00;95355.91;4999204;28;20078;-50
2021/12/27 01:55:25;;;;;;;50.50;25.50;;;;;;;4.28;100.00;95347.53;5005634;28;20086;-50
2021/12/27 01:57:54;;;;;;;47.63;26.83;;;;;;;3.96;100.00;95350.31;5006744;28;20065;-49
2021/12/27 02:00:24;;;;;;;50.17;27.63;;;;;;;4.59;100.00;95349.25;5000556;28;20080;-48
2021/12/27 02:02:53;;;;;;;46.08;25.73;;;;;;;4.75;100.00;95346.94;5021236;28;20057;-50
2021/12/27 02:05:21;;;;;;;50.40;26.05;;;;;;;4.27;100.00;95347.69;5032775;28;20714;-56
2021/12/27 02:07:50;;;;;;;43.28;24.67;;;;;;;3.99;100.00;95346.59;5025203;28;20065;-53
2021/12/27 02:10:18;;;;;;;47.97;24.67;;;;;;;4.35;100.00;95349.63;5028164;28;20061;-58
2021/12/27 02:12:46;;;;;;;44.90;25.05;;;;;;;3.87;100.00;95345.06;5027152;28;20080;-46
2021/12/27 02:15:15;;;;;;;45.00;24.65;;;;;;;4.21;100.00;95353.44;5029837;28;20076;-47
2021/12/27 02:17:45;;;;;;;45.33;25.60;;;;;;;4.07;100.00;95346.78;5027479;28;20069;-46
2021/12/27 02:20:19;;;;;;;44.22;25.60;;;;;;;4.26;100.00;95339.00;5032171;28;20096;-49
2021/12/27 02:22:48;;;;;;;42.50;23.75;;;;;;;5.04;100.00;95361.78;5031690;28;20072;-48
2021/12/27 02:25:17;;;;;;;42.25;24.88;;;;;;;5.47;100.00;95353.47;5029979;28;20543;-46
2021/12/27 02:27:46;;;;;;;47.28;25.88;;;;;;;4.80;100.00;95349.13;5024214;28;20073;-50
2021/12/27 02:30:17;;;;;;;43.50;25.20;;;;;;;5.56;100.00;95351.81;5012006;28;20081;-50
2021/12/27 02:32:48;;;;;;;42.30;24.35;;;;;;;5.19;100.00;95355.16;5017255;28;20452;-45
2021/12/27 02:35:20;;;;;;;42.92;24.90;;;;;;;4.37;100.00;95350.28;5026581;28;20554;-47
2021/12/27 02:37:48;;;;;;;43.55;25.33;;;;;;;4.71;100.00;95350.75;5022195;28;20068;-46
2021/12/27 02:40:18;;;;;;;47.40;26.23;;;;;;;4.82;100.00;95353.28;5030245;28;20452;-46
2021/12/27 02:42:57;;;;;;;42.85;25.15;;;;;;;4.12;100.00;95338.56;5037161;28;20077;-52
2021/12/27 02:45:27;;;;;;;45.17;24.77;;;;;;;4.13;100.00;95345.41;5023681;28;20548;-53
2021/12/27 02:47:56;;;;;;;41.10;25.05;;;;;;;4.52;100.00;95347.19;5026890;28;20076;-53
2021/12/27 02:50:26;;;;;;;44.83;25.88;;;;;;;4.38;100.00;95337.13;5027520;28;20477;-53
2021/12/27 02:52:55;;;;;;;44.70;25.30;;;;;;;4.15;100.00;95327.88;5019004;28;20073;-50
2021/12/27 02:55:24;;;;;;;40.53;23.50;;;;;;;4.02;100.00;95328.91;5004506;28;20066;-49
2021/12/27 02:57:53;;;;;;;47.88;26.45;;;;;;;4.34;100.00;95333.13;5018993;28;20096;-47
2021/12/27 03:00:44;;;;;;;41.83;25.13;;;;;;;4.10;100.00;95324.84;5023777;28;20092;-45
2021/12/27 03:03:12;;;;;;;44.38;25.63;;;;;;;4.28;100.00;95328.44;4998496;28;20837;-48
2021/12/27 03:05:43;;;;;;;43.90;23.98;;;;;;;4.17;100.00;95323.34;5019287;28;20695;-50
2021/12/27 03:08:14;;;;;;;44.83;25.40;;;;;;;4.41;100.00;95323.81;5027793;28;20083;-45
2021/12/27 03:10:45;;;;;;;45.63;26.10;;;;;;;4.01;100.00;95324.66;5031234;28;20064;-55
2021/12/27 03:13:16;;;;;;;46.55;26.70;;;;;;;4.72;100.00;95328.94;5027212;28;20084;-52
2021/12/27 03:15:45;;;;;;;48.97;27.20;;;;;;;4.88;100.00;95318.75;5031899;28;20045;-45
2021/12/27 03:18:14;;;;;;;48.80;24.40;;;;;;;4.48;100.00;95327.53;5024102;28;20069;-51
2021/12/27 03:20:44;;;;;;;46.85;25.38;;;;;;;4.97;100.00;95325.75;5016261;28;20099;-51
2021/12/27 03:23:12;;;;;;;42.60;25.33;;;;;;;4.29;100.00;95324.88;5022997;28;20483;-50
2021/12/27 03:25:41;;;;;;;43.35;24.63;;;;;;;4.20;100.00;95323.09;5028132;28;20084;-49
2021/12/27 03:28:09;;;;;;;44.60;26.30;;;;;;;4.22;100.00;95313.31;5024111;28;20068;-53
2021/12/27 03:30:38;;;;;;;45.50;25.35;;;;;;;4.61;100.00;95318.59;5020685;28;20065;-51
2021/12/27 03:33:07;;;;;;;43.38;25.25;;;;;;;4.78;100.00;95312.69;5025888;28;20080;-46
2021/12/27 03:35:38;;;;;;;48.33;24.88;;;;;;;5.28;100.00;95316.94;5021249;28;20524;-51
2021/12/27 03:38:11;;;;;;;45.53;26.08;;;;;;;4.98;100.00;95306.50;5026601;28;20162;-51
2021/12/27 03:40:40;;;;;;;45.05;25.45;;;;;;;4.69;100.00;95308.31;5026845;28;20073;-47
2021/12/27 03:43:09;;;;;;;45.45;25.70;;;;;;;4.59;100.00;95307.47;5034658;28;20085;-53
2021/12/27 03:45:39;;;;;;;46.28;26.17;;;;;;;4.98;100.00;95311.72;5027333;28;20076;-47
2021/12/27 03:48:08;;;;;;;;;;;;;;;5.64;100.00;95307.47;5025696;28;20733;-47
2021/12/27 03:50:38;;;;;;;42.30;24.85;;;;;;;5.61;100.00;95315.59;5030356;28;19991;-55
2021/12/27 03:53:08;;;;;;;40.73;24.23;;;;;;;5.63;100.00;95305.84;5028706;28;20076;-52
2021/12/27 03:55:37;;;;;;;43.33;25.20;;;;;;;5.36;100.00;95310.03;5022172;28;20084;-48
2021/12/27 03:58:09;;;;;;;44.20;25.33;;;;;;;4.96;100.00;95310.25;5006417;28;20758;-55
2021/12/27 04:00:59;;;;;;;41.00;25.00;;;;;;;5.32;100.00;95305.22;5003892;28;20073;-47
2021/12/27 04:03:29;;;;;;;41.55;24.70;;;;;;;5.36;100.00;95310.03;5026184;28;20480;-46
2021/12/27 04:05:58;;;;;;;44.67;25.85;;;;;;;5.52;100.00;95312.06;5016452;28;20070;-50
2021/12/27 04:08:28;;;;;;;45.83;25.92;;;;;;;5.69;100.00;95310.50;5003569;28;20066;-48
2021/12/27 04:10:57;;;;;;;47.75;25.73;;;;;;;5.09;100.00;95307.31;5005217;28;20069;-55
2021/12/27 04:13:25;;;;;;;43.25;26.30;;;;;;;4.81;100.00;95301.97;5026399;28;20080;-52
2021/12/27 04:15:53;;;;;;;43.42;25.58;;;;;;;5.21;100.00;95298.38;5029634;28;20088;-49
2021/12/27 04:18:22;;;;;;;43.75;25.58;;;;;;;4.99;100.00;95300.34;5026079;28;20084;-49
2021/12/27 04:20:51;;;;;;;46.47;27.42;;;;;;;4.60;100.00;95298.69;5027741;28;20489;-56
2021/12/27 04:23:19;;;;;;;48.15;25.88;;;;;;;4.50;100.00;95293.44;5031503;28;20520;-48
2021/12/27 04:25:49;;;;;;;47.30;26.95;;;;;;;4.73;100.00;95300.06;5028131;28;20068;-49
2021/12/27 04:28:19;;;;;;;45.08;26.35;;;;;;;5.24;100.00;95293.69;5028215;28;20416;-45
2021/12/27 04:30:48;;;;;;;45.90;25.23;;;;;;;4.73;100.00;95296.63;5008811;28;20137;-57
2021/12/27 04:33:17;;;;;;;46.20;24.85;;;;;;;4.60;100.00;95290.84;5020977;28;20107;-47
2021/12/27 04:35:45;;;;;;;47.13;25.88;;;;;;;5.10;100.00;95298.53;5009798;28;20073;-53
2021/12/27 04:38:14;;;;;;;45.45;25.52;;;;;;;4.97;100.00;95298.81;5001833;28;20460;-49
2021/12/27 04:40:43;;;;;;;43.17;25.10;;;;;;;5.18;100.00;95301.28;5008009;28;20061;-48
2021/12/27 04:43:15;;;;;;;48.00;26.40;;;;;;;5.15;100.00;95298.94;5027620;28;20077;-54
2021/12/27 04:45:46;;;;;;;46.53;25.08;;;;;;;5.51;100.00;95307.00;4999866;28;20511;-54
2021/12/27 04:48:15;;;;;;;48.95;25.75;;;;;;;5.63;100.00;95290.16;5004674;28;20081;-52
2021/12/27 04:50:44;;;;;;;44.63;26.10;;;;;;;5.28;100.00;95302.06;5001030;28;20069;-52
2021/12/27 04:53:12;;;;;;;45.75;26.02;;;;;;;4.86;100.00;95298.97;5000226;28;20058;-53
2021/12/27 04:55:40;;;;;;;49.70;25.92;;;;;;;4.79;100.00;95297.88;5001966;28;20073;-56
2021/12/27 04:58:09;;;;;;;47.47;27.02;;;;;;;5.43;100.00;95305.06;4997467;28;20085;-52
2021/12/27 05:00:39;;;;;;;44.53;26.35;;;;;;;5.16;100.00;95296.19;4996262;28;20062;-53
2021/12/27 05:03:08;;;;;;;48.70;27.05;;;;;;;5.53;100.00;95299.81;5015446;28;20080;-53
2021/12/27 05:05:41;;;;;;;46.17;26.77;;;;;;;5.60;100.00;95306.94;5008305;28;20065;-48
2021/12/27 05:08:09;;;;;;;44.55;26.35;;;;;;;5.49;100.00;95312.34;5014602;28;20084;-55
2021/12/27 05:10:39;;;;;;;46.67;27.17;;;;;;;5.65;100.00;95302.13;5024325;28;20068;-49
2021/12/27 05:13:07;;;;;;;50.25;27.05;;;;;;;5.65;100.00;95303.91;5023738;28;20100;-55
2021/12/27 05:15:35;;;;;;;43.17;25.40;;;;;;;5.85;100.00;95294.19;5023527;28;20073;-55
2021/12/27 05:18:05;;;;;;;49.78;26.48;;;;;;;5.77;100.00;95300.13;5017362;28;20078;-53
2021/12/27 05:20:34;;;;;;;47.37;25.87;;;;;;;5.72;100.00;95297.16;5022120;28;20075;-55
2021/12/27 05:23:02;;;;;;;50.63;27.42;;;;;;;5.62;100.00;95301.59;5023793;28;20483;-57
2021/12/27 05:25:31;;;;;;;44.10;25.70;;;;;;;5.34;100.00;95301.53;5021759;28;20081;-53
2021/12/27 05:27:59;;;;;;;46.53;26.65;;;;;;;5.52;100.00;95296.38;5028335;28;20073;-53
2021/12/27 05:30:28;;;;;;;48.42;28.30;;;;;;;5.30;100.00;95291.47;5017329;28;20173;-59
2021/12/27 05:32:56;;;;;;;47.47;27.58;;;;;;;5.21;100.00;95295.75;5027120;28;20499;-54
2021/12/27 05:35:26;;;;;;;46.30;27.05;;;;;;;5.22;100.00;95287.78;5020264;28;20067;-57
2021/12/27 05:37:54;;;;;;;44.43;25.47;;;;;;;5.58;100.00;95298.44;5022500;28;20073;-50
2021/12/27 05:40:23;;;;;;;46.28;25.27;;;;;;;5.10;100.00;95298.53;5025463;28;20081;-53
2021/12/27 05:42:53;;;;;;;45.42;25.92;;;;;;;5.45;100.00;95292.69;5008091;28;20081;-50
2021/12/27 05:45:22;;;;;;;43.95;25.05;;;;;;;5.82;100.00;95287.47;5021578;28;20057;-52
2021/12/27 05:47:51;;;;;;;45.95;27.02;;;;;;;5.23;100.00;95293.84;5027577;28;20522;-54
2021/12/27 05:50:20;;;;;;;45.97;26.75;;;;;;;5.46;100.00;95286.47;5031925;28;20229;-55
2021/12/27 05:52:53;;;;;;;45.70;26.15;;;;;;;4.96;100.00;95298.00;5024057;28;20057;-50
2021/12/27 05:55:22;;;;;;;44.75;26.70;;;;;;;4.77;100.00;95295.38;5022957;28;20069;-55
2021/12/27 05:57:50;;;;;;;49.15;27.08;;;;;;;4.59;100.00;95284.81;5028580;28;20092;-51
2021/12/27 06:00:19;;;;;;;46.10;25.38;;;;;;;4.73;100.00;95280.97;5021988;28;20069;-52
2021/12/27 06:02:48;;;;;;;48.13;27.45;;;;;;;4.93;100.00;95281.78;5013654;28;20065;-54
2021/12/27 06:05:17;;;;;;;46.85;26.08;;;;;;;5.12;100.00;95286.16;5018255;28;20069;-57
2021/12/27 06:07:46;;;;;;;45.88;25.85;;;;;;;4.63;100.00;95282.75;5025200;28;20073;-50
2021/12/27 06:10:16;;;;;;;46.58;26.42;;;;;;;4.69;100.00;95280.41;5025011;28;20111;-49
2021/12/27 06:12:44;;;;;;;50.45;28.25;;;;;;;4.93;100.00;95290.44;5024407;28;21475;-52
2021/12/27 06:15:14;;;;;;;46.85;27.20;;;;;;;5.07;100.00;95296.19;5026711;28;20069;-55
2021/12/27 06:17:43;;;;;;;46.15;26.63;;;;;;;4.10;100.00;95299.56;5012636;28;20069;-49
2021/12/27 06:20:13;;;;;;;50.80;28.50;;;;;;;4.98;100.00;95290.00;5011550;28;20112;-57
2021/12/27 06:22:45;;;;;;;50.13;28.40;;;;;;;4.66;100.00;95290.31;5019905;28;20110;-54
2021/12/27 06:25:15;;;;;;;51.13;27.63;;;;;;;4.84;100.00;95291.25;5007436;28;20471;-51
2021/12/27 06:27:44;;;;;;;49.60;28.05;;;;;;;5.27;100.00;95299.63;5023033;28;20743;-50
2021/12/27 06:30:13;;;;;;;48.38;26.98;;;;;;;4.78;100.00;95290.97;5023807;28;20076;-54
2021/12/27 06:32:42;;;;;;;49.88;28.35;;;;;;;4.66;100.00;95291.13;5025929;28;20084;-52
2021/12/27 06:35:12;;;;;;;51.20;27.13;;;;;;;5.02;100.00;95282.72;5026965;28;20076;-55
2021/12/27 06:37:43;;;;;;;46.00;26.38;;;;;;;5.19;100.00;95290.66;5020995;28;20065;-52
2021/12/27 06:40:12;;;;;;;45.85;27.13;;;;;;;5.05;100.00;95285.06;5029551;28;20084;-50
2021/12/27 06:42:42;;;;;;;49.55;27.98;;;;;;;4.84;100.00;95278.19;4996811;28;20589;-54
2021/12/27 06:45:11;;;;;;;44.85;26.70;;;;;;;4.96;100.00;95282.31;4993692;28;20552;-48
2021/12/27 06:47:39;;;;;;;48.83;27.33;;;;;;;5.11;100.00;95268.81;5000657;28;20425;-54
2021/12/27 06:50:09;;;;;;;48.45;27.85;;;;;;;5.20;100.00;95270.59;5001811;28;20064;-49
2021/12/27 06:52:37;;;;;;;44.08;25.90;;;;;;;5.36;100.00;95275.22;4998023;28;20077;-54
2021/12/27 06:55:07;;;;;;;48.05;27.50;;;;;;;5.11;100.00;95274.88;5001655;28;20089;-53
2021/12/27 06:57:35;;;;;;;48.97;28.88;;;;;;;5.02;100.00;95274.88;5010647;28;20085;-51
2021/12/27 07:00:08;;;;;;;47.45;27.08;;;;;;;5.59;100.00;95267.88;5001373;28;20481;-52
2021/12/27 07:02:36;;;;;;;46.17;25.25;;;;;;;5.60;100.00;95274.75;5015951;28;20077;-47
2021/12/27 07:05:06;;;;;;;46.83;26.40;;;;;;;5.51;100.00;95280.84;5019283;28;20076;-52
2021/12/27 07:07:34;;;;;;;46.25;26.95;;;;;;;5.14;100.00;95282.44;5029700;28;20080;-50
2021/12/27 07:10:03;;;;;;;47.83;27.35;;;;;;;5.59;100.00;95270.47;5028615;28;20464;-50
2021/12/27 07:12:32;;;;;;;47.58;27.83;;;;;;;5.49;100.00;95275.75;5024391;28;20924;-54
2021/12/27 07:15:00;;;;;;;51.53;29.05;;;;;;;5.07;100.00;95283.13;5018335;28;20816;-50
2021/12/27 07:17:30;;;;;;;48.25;26.75;;;;;;;4.92;100.00;95286.19;5023610;28;20503;-48
2021/12/27 07:19:58;;;;;;;46.70;26.53;;;;;;;5.26;100.00;95285.69;5021421;28;20524;-57
2021/12/27 07:22:26;;;;;;;45.38;27.35;;;;;;;5.21;100.00;95283.53;5023619;28;20092;-58
2021/12/27 07:24:55;;;;;;;47.45;26.92;;;;;;;5.31;100.00;95272.22;5027331;28;20085;-50
2021/12/27 07:27:23;;;;;;;47.85;26.58;;;;;;;5.23;100.00;95276.38;5005124;28;20061;-52
2021/12/27 07:29:52;;;;;;;46.05;26.80;;;;;;;5.56;100.00;95273.38;5014908;28;20069;-56
2021/12/27 07:32:20;;;;;;;47.05;27.33;;;;;;;5.20;100.00;95281.88;5016071;28;20088;-50
2021/12/27 07:34:50;;;;;;;42.22;25.83;;;;;;;5.17;100.00;95286.56;4996776;28;20070;-50
2021/12/27 07:37:19;;;;;;;43.70;25.33;;;;;;;5.38;100.00;95275.91;4999346;28;20097;-47
2021/12/27 07:39:47;;;;;;;46.67;25.27;;;;;;;5.16;100.00;95275.28;5002320;28;20089;-49
2021/12/27 07:42:15;;;;;;;42.95;24.90;;;;;;;5.36;100.00;95270.81;5017988;28;20084;-52
2021/12/27 07:44:45;;;;;;;45.90;26.52;;;;;;;5.35;100.00;95263.94;5020403;28;20084;-56
2021/12/27 07:47:13;;;;;;;44.50;27.00;;;;;;;4.88;100.00;95268.31;5021286;28;20078;-47
2021/12/27 07:49:41;;;;;;;47.33;27.90;;;;;;;4.78;100.00;95264.88;5029580;28;20527;-48
2021/12/27 07:52:11;;;;;;;49.42;28.08;;;;;;;4.85;100.00;95269.44;5025054;28;20084;-52
2021/12/27 07:54:40;;;;;;;44.13;25.55;;;;;;;4.52;100.00;95271.47;5024426;28;20113;-50
2021/12/27 07:57:08;;;;;;;43.42;25.63;;;;;;;4.72;100.00;95269.69;5024237;28;20061;-55
2021/12/27 07:59:36;;;;;;;47.85;28.40;;;;;;;4.60;100.00;95269.97;5023085;28;20096;-50
2021/12/27 08:02:05;;;;;;;50.53;28.20;;;;;;;4.86;100.00;95273.69;5022782;28;20068;-45
2021/12/27 08:04:34;;;;;;;45.08;26.92;;;;;;;5.22;100.00;95264.25;5021368;28;20500;-55
2021/12/27 08:07:02;;;;;;;48.28;27.92;;;;;;;5.10;100.00;95270.63;5025553;28;20168;-48
2021/12/27 08:09:32;;;;;;;46.95;27.25;;;;;;;5.29;100.00;95261.91;5022539;28;20061;-55
2021/12/27 08:12:01;;;;;;;50.35;28.58;;;;;;;5.25;100.00;95257.94;5022856;28;20562;-52
2021/12/27 08:14:29;;;;;;;46.97;25.25;;;;;;;5.43;100.00;95258.00;5023111;28;20584;-48
2021/12/27 08:16:58;;;;;;;51.22;28.35;;;;;;;5.20;100.00;95253.13;5025836;28;20677;-49
2021/12/27 08:19:26;;;;;;;47.08;26.23;;;;;;;5.10;100.00;95248.91;5020725;28;20080;-49
2021/12/27 08:21:55;;;;;;;44.67;25.77;;;;;;;5.30;100.00;95242.66;5026844;28;20194;-45
2021/12/27 08:24:23;;;;;;;46.72;27.38;;;;;;;5.70;100.00;95244.13;5034809;28;20064;-51
2021/12/27 08:26:53;;;;;;;45.85;25.95;;;;;;;5.35;100.00;95245.66;5031246;28;20068;-48
2021/12/27 08:29:21;;;;;;;44.63;25.93;;;;;;;5.22;100.00;95252.97;5029639;28;20062;-50
2021/12/27 08:31:49;;;;;;;42.35;24.30;;;;;;;4.77;100.00;95248.38;5027309;28;20049;-48
2021/12/27 08:34:18;;;;;;;44.92;27.10;;;;;;;5.16;100.00;95237.84;5030743;28;20084;-52
2021/12/27 08:36:51;;;;;;;43.67;25.67;;;;;;;5.46;100.00;95234.19;5028614;28;20483;-48
2021/12/27 08:39:20;;;;;;;44.63;26.73;;;;;;;5.65;100.00;95238.53;5025433;28;20076;-49
2021/12/27 08:41:48;;;;;;;45.50;27.05;;;;;;;5.91;100.00;95236.88;5011217;28;20066;-54
2021/12/27 08:44:18;;;;;;;47.35;27.27;;;;;;;5.90;100.00;95240.47;5003258;28;20531;-52
2021/12/27 08:46:46;;;;;;;44.13;25.03;;;;;;;6.11;100.00;95237.63;5002178;28;20072;-50
2021/12/27 08:49:15;;;;;;;44.40;25.80;;;;;;;5.77;100.00;95233.94;5006916;28;20078;-55
2021/12/27 08:51:44;;;;;;;44.53;25.55;;;;;;;5.66;100.00;95233.16;5025604;28;20483;-47
2021/12/27 08:54:13;;;;;;;47.70;27.63;;;;;;;5.96;100.00;95236.47;5006059;28;20061;-48
2021/12/27 08:56:42;;;;;;;42.03;24.90;;;;;;;6.14;100.00;95232.09;5010254;28;20112;-57
2021/12/27 08:59:10;;;;;;;43.50;24.50;;;;;;;5.82;100.00;95229.91;5035829;28;20073;-50
2021/12/27 09:01:40;;;;;;;39.60;23.95;;;;;;;6.09;100.00;95228.25;5030074;28;20076;-49
2021/12/27 09:04:09;;;;;;;40.53;24.73;;;;;;;5.99;100.00;95228.34;5026503;28;20598;-48
2021/12/27 09:06:37;;;;;;;38.08;24.25;;;;;;;6.77;100.00;95225.97;5029997;28;20542;-47
2021/12/27 09:09:06;;;;;;;42.38;24.73;;;;;;;6.50;100.00;95218.19;5026548;28;20069;-47
2021/12/27 09:11:35;;;;;;;41.45;25.38;;;;;;;6.53;100.00;95220.50;5024377;28;20082;-52
2021/12/27 09:14:03;;;;;;;43.47;24.45;;;;;;;6.66;100.00;95224.41;5026010;28;20073;-52
2021/12/27 09:16:45;;;;;;;41.07;25.57;;;;;;;6.23;100.00;95227.78;5023744;28;20069;-50
2021/12/27 09:19:14;;;;;;;37.80;24.10;;;;;;;6.59;100.00;95212.88;5028721;28;20072;-46
2021/12/27 09:21:43;;;;;;;41.22;24.98;;;;;;;6.14;100.00;95218.19;5024721;28;20599;-48
2021/12/27 09:24:15;;;;;;;36.42;23.50;;;;;;;6.90;100.00;95217.72;5005549;28;20072;-50
2021/12/27 09:26:44;;;;;;;38.80;24.55;;;;;;;6.97;100.00;95212.69;5002914;28;20069;-46
2021/12/27 09:29:13;;;;;;;38.83;23.25;;;;;;;7.16;100.00;95212.50;5000387;28;20069;-51
2021/12/27 09:31:41;;;;;;;34.85;22.45;;;;;;;6.66;100.00;95215.72;4999242;28;20073;-53
2021/12/27 09:34:11;;;;;;;34.47;22.20;;;;;;;6.55;100.00;95203.69;5007628;28;20089;-47
2021/12/27 09:36:40;;;;;;;35.78;22.50;;;;;;;7.09;100.00;95196.56;5002211;28;20073;-48
2021/12/27 09:39:09;;;;;;;34.92;21.88;;;;;;;7.09;100.00;95188.69;5000737;28;20521;-47
2021/12/27 09:41:37;;;;;;;39.40;24.08;;;;;;;7.18;100.00;95189.56;5014065;28;20065;-48
2021/12/27 09:44:06;;;;;;;38.75;25.08;;;;;;;6.87;100.00;95203.13;5018839;28;20080;-51
2021/12/27 09:46:34;;;;;;;36.17;22.92;;;;;;;7.35;100.00;95201.78;4999281;28;20082;-53
2021/12/27 09:49:07;;;;;;;34.92;22.23;;;;;;;7.14;100.00;95201.34;5026641;28;20613;-47
2021/12/27 09:51:40;;;;;;;35.53;22.08;;;;;;;7.12;100.00;95205.91;5031840;28;20070;-54
2021/12/27 09:54:09;;;;;;;35.28;22.15;;;;;;;7.15;100.00;95189.88;5023636;28;20167;-55
2021/12/27 09:56:38;;;;;;;35.15;21.52;;;;;;;6.98;100.00;95183.69;5022159;28;20067;-49
2021/12/27 09:59:06;;;;;;;37.25;23.85;;;;;;;6.88;100.00;95181.19;5029137;28;20089;-47
2021/12/27 10:01:35;;;;;;;32.60;20.63;;;;;;;7.48;100.00;95180.38;5026075;28;20084;-52
2021/12/27 10:04:04;;;;;;;31.98;20.20;;;;;;;7.27;100.00;95180.78;5027134;28;20081;-51
2021/12/27 10:06:33;;;;;;;33.80;20.88;;;;;;;7.74;100.00;95177.72;5026296;28;20075;-52
2021/12/27 10:09:05;;;;;;;34.00;21.50;;;;;;;7.73;100.00;95188.34;5034684;28;20071;-58
2021/12/27 10:11:35;;;;;;;35.15;21.10;;;;;;;7.78;100.00;95189.53;5025957;28;20581;-47
2021/12/27 10:14:07;;;;;;;32.80;21.55;;;;;;;8.22;100.00;95185.84;5024337;28;20065;-54
2021/12/27 10:16:37;;;;;;;29.30;19.20;;;;;;;8.04;100.00;95186.81;5024639;28;20088;-50
2021/12/27 10:19:07;;;;;;;29.95;19.95;;;;;;;7.90;100.00;95181.34;5027961;28;20492;-52
2021/12/27 10:21:41;;;;;;;30.90;19.63;;;;;;;8.03;100.00;95179.91;5026055;28;20068;-51
2021/12/27 10:24:14;;;;;;;27.60;19.15;;;;;;;8.35;100.00;95174.88;5022189;28;20071;-50
2021/12/27 10:26:45;;;;;;;27.20;17.80;;;;;;;7.99;100.00;95169.91;5012733;28;20069;-52
2021/12/27 10:29:19;;;;;;;28.65;19.20;;;;;;;7.72;100.00;95163.91;5004892;28;20084;-50
2021/12/27 10:32:06;;;;;;;25.27;17.95;;;;;;;8.13;100.00;95163.22;5007341;28;20076;-53
2021/12/27 10:34:37;;;;;;;28.80;17.52;;;;;;;8.40;100.00;95160.31;5023055;28;20076;-47
2021/12/27 10:37:07;;;;;;;;;;;;;;;8.39;100.00;95160.47;5026981;28;20080;-50
2021/12/27 10:39:54;;;;;;;23.60;15.50;;;;;;;8.06;100.00;95155.97;5023785;28;19956;-54
2021/12/27 10:42:25;;;;;;;25.40;17.63;;;;;;;8.29;100.00;95153.56;5026086;28;20537;-50
2021/12/27 10:44:56;;;;;;;25.55;15.95;;;;;;;8.79;100.00;95155.22;5024783;28;20550;-52
2021/12/27 10:47:36;;;;;;;24.67;17.85;;;;;;;9.00;100.00;95169.66;5026291;28;20532;-48
2021/12/27 10:50:12;;;;;;;25.23;16.00;;;;;;;9.42;100.00;95165.94;5025453;28;20099;-52
2021/12/27 10:52:50;;;;;;;22.00;15.88;;;;;;;8.64;100.00;95170.03;5023730;28;20080;-51
2021/12/27 10:55:21;;;;;;;23.70;15.68;;;;;;;9.11;100.00;95148.25;5030566;28;20085;-55
2021/12/27 10:57:51;;;;;;;25.02;17.40;;;;;;;8.45;100.00;95158.00;5026890;28;20084;-46
2021/12/27 11:00:26;;;;;;;22.92;15.63;;;;;;;8.85;100.00;95151.13;5003432;28;20069;-46
2021/12/27 11:02:58;;;;;;;23.77;16.10;;;;;;;9.31;100.00;95142.63;4998250;28;20073;-52
2021/12/27 11:05:28;;;;;;;23.73;15.57;;;;;;;8.20;100.00;95145.81;4995810;28;20038;-48
2021/12/27 11:07:59;;;;;;;24.38;15.07;;;;;;;7.87;100.00;95137.88;5008558;28;20069;-52
2021/12/27 11:10:31;;;;;;;20.98;16.17;;;;;;;8.38;100.00;95132.56;5023517;28;20091;-47
2021/12/27 11:13:00;;;;;;;25.77;18.35;;;;;;;8.34;100.00;95134.66;5022763;28;20084;-52
2021/12/27 11:15:29;;;;;;;24.88;16.70;;;;;;;8.01;100.00;95133.81;5028282;28;20057;-48
2021/12/27 11:17:58;;;;;;;26.88;19.38;;;;;;;7.89;100.00;95129.84;5021022;28;20465;-50
2021/12/27 11:20:27;;;;;;;29.33;18.95;;;;;;;7.55;100.00;95118.44;5007911;28;20062;-48
2021/12/27 11:22:59;;;;;;;30.02;18.60;;;;;;;7.88;100.00;95117.69;5000031;28;20073;-47
2021/12/27 11:25:31;;;;;;;27.25;18.85;;;;;;;7.99;100.00;95107.72;5002967;28;20082;-54
2021/12/27 11:28:00;;;;;;;26.38;17.77;;;;;;;7.23;100.00;95103.41;5004288;28;20069;-46